YDKE weather

Drake Oval Helicopter Landing Site
Drake, New South Wales, Australia

Public forecast

Using degrees Celsius for public forecast. Weather courtesy of forecast.io.

METAR (pilot weather report)

Closest report is Casino Airport, 36.4 nm (67.4 km) E. Retrieved 2019/04/22 17:00 UTC (39 minutes ago):

YCAS 221700Z AUTO 00000KT //// // ////// 15/14 Q1023

TAF (pilot weather forecast)

Closest forecast is Gold Coast Airport, 75.1 nm (139.0 km) NE. Retrieved 2019/04/22 12:00 UTC (6 hours ago):

TAF YBCG 221109Z 2212/2312 21008KT 9999 -SHRA FEW010 SCT020 BKN040 FM222300 12013KT 9999 SCT030 INTER 2212/2222 11015KT 2500 SHRA BKN010